createdAt,value
2023-12-13T00:01:44.805Z,5.82
2023-12-13T00:04:13.882Z,8.30
2023-12-13T00:06:45.350Z,6.45
2023-12-13T00:09:12.313Z,6.28
2023-12-13T00:11:39.180Z,6.57
2023-12-13T00:14:07.001Z,7.30
2023-12-13T00:16:33.691Z,7.85
2023-12-13T00:19:00.778Z,6.40
2023-12-13T00:21:29.737Z,8.52
2023-12-13T00:23:57.290Z,6.82
2023-12-13T00:26:25.241Z,10.68
2023-12-13T00:28:51.979Z,7.10
2023-12-13T00:31:18.656Z,7.80
2023-12-13T00:33:45.401Z,6.43
2023-12-13T00:36:12.000Z,8.05
2023-12-13T00:38:38.728Z,7.85
2023-12-13T00:41:11.688Z,7.78
2023-12-13T00:43:38.425Z,8.93
2023-12-13T00:46:06.770Z,12.10
2023-12-13T00:48:46.151Z,6.50
2023-12-13T00:51:18.218Z,6.85
2023-12-13T00:53:45.115Z,8.27
2023-12-13T00:56:11.901Z,9.13
2023-12-13T00:58:38.562Z,7.38
2023-12-13T01:01:09.012Z,7.63
2023-12-13T01:03:37.873Z,8.85
2023-12-13T01:06:09.789Z,8.95
2023-12-13T01:08:41.723Z,8.32
2023-12-13T01:11:12.029Z,7.15
2023-12-13T01:13:42.636Z,8.02
2023-12-13T01:16:09.717Z,8.52
2023-12-13T01:18:38.397Z,8.73
2023-12-13T01:21:05.198Z,7.82
2023-12-13T01:23:33.926Z,9.52
2023-12-13T01:26:05.632Z,7.70
2023-12-13T01:28:32.263Z,7.80
2023-12-13T01:31:05.855Z,8.35
2023-12-13T01:33:32.879Z,8.68
2023-12-13T01:36:02.431Z,8.30
2023-12-13T01:38:31.557Z,8.13
2023-12-13T01:41:11.884Z,10.82
2023-12-13T01:43:43.978Z,8.27
2023-12-13T01:46:16.872Z,8.52
2023-12-13T01:48:45.201Z,9.65
2023-12-13T01:51:13.221Z,9.23
2023-12-13T01:56:11.664Z,7.75
2023-12-13T01:58:39.538Z,6.90
2023-12-13T02:01:08.290Z,7.60
2023-12-13T02:03:37.086Z,8.32
2023-12-13T02:06:06.435Z,8.23
2023-12-13T02:08:36.404Z,11.05
2023-12-13T02:11:05.602Z,10.73
2023-12-13T02:13:32.600Z,10.30
2023-12-13T02:16:01.510Z,8.38
2023-12-13T02:18:29.116Z,7.88
2023-12-13T02:20:56.147Z,6.95
2023-12-13T02:23:25.300Z,9.27
2023-12-13T02:26:06.585Z,9.85
2023-12-13T02:28:36.692Z,10.57
2023-12-13T02:31:05.855Z,8.07
2023-12-13T02:33:37.160Z,9.27
2023-12-13T02:36:07.222Z,9.50
2023-12-13T02:38:36.447Z,9.63
2023-12-13T02:41:06.161Z,7.72
2023-12-13T02:43:34.988Z,10.30
2023-12-13T02:46:01.632Z,9.10
2023-12-13T02:48:28.482Z,8.85
2023-12-13T02:50:55.285Z,6.97
2023-12-13T02:53:23.006Z,10.00
2023-12-13T02:55:50.124Z,8.07
2023-12-13T02:58:17.317Z,6.40
2023-12-13T03:00:44.172Z,7.47
2023-12-13T03:03:11.213Z,9.70
2023-12-13T03:05:37.915Z,6.82
2023-12-13T03:08:04.930Z,7.10
2023-12-13T03:10:34.137Z,8.55
2023-12-13T03:13:00.745Z,6.85
2023-12-13T03:15:29.717Z,8.52
2023-12-13T03:17:56.395Z,8.63
2023-12-13T03:20:23.143Z,8.65
2023-12-13T03:22:52.099Z,6.72
2023-12-13T03:25:21.469Z,9.27
2023-12-13T03:27:52.926Z,8.07
2023-12-13T03:30:22.063Z,7.70
2023-12-13T03:32:49.509Z,6.65
2023-12-13T03:35:18.814Z,9.75
2023-12-13T03:37:49.218Z,8.57
2023-12-13T03:40:16.218Z,8.50
2023-12-13T03:42:45.389Z,8.25
2023-12-13T03:45:14.378Z,8.10
2023-12-13T03:47:43.808Z,11.38
2023-12-13T03:50:10.648Z,9.07
2023-12-13T03:52:37.461Z,10.27
2023-12-13T03:55:07.219Z,6.68
2023-12-13T03:57:36.803Z,8.85
2023-12-13T04:00:03.747Z,9.13
2023-12-13T04:02:30.397Z,8.60
2023-12-13T04:04:56.990Z,11.50
2023-12-13T04:07:28.462Z,8.65
2023-12-13T04:09:57.293Z,9.63
2023-12-13T04:12:26.373Z,10.40
2023-12-13T04:14:52.955Z,10.00
2023-12-13T04:17:21.958Z,10.07
2023-12-13T04:19:50.770Z,9.40
2023-12-13T04:22:19.642Z,11.93
2023-12-13T04:24:51.158Z,7.18
2023-12-13T04:27:18.517Z,10.90
2023-12-13T04:29:50.021Z,12.55
2023-12-13T04:32:16.520Z,10.73
2023-12-13T04:34:45.377Z,13.38
2023-12-13T04:37:12.017Z,13.02
2023-12-13T04:39:39.390Z,10.10
2023-12-13T04:42:08.298Z,12.27
2023-12-13T04:44:34.870Z,11.93
2023-12-13T04:47:04.577Z,10.13
2023-12-13T04:49:32.184Z,14.10
2023-12-13T04:51:59.317Z,11.52
2023-12-13T04:54:25.868Z,11.52
2023-12-13T04:56:54.867Z,9.48
2023-12-13T04:59:24.099Z,11.05
2023-12-13T05:01:51.188Z,11.10
2023-12-13T05:04:17.789Z,10.23
2023-12-13T05:06:46.762Z,13.43
2023-12-13T05:09:15.662Z,12.60
2023-12-13T05:11:42.597Z,14.90
2023-12-13T05:14:09.248Z,9.80
2023-12-13T05:16:35.937Z,14.35
2023-12-13T05:19:02.635Z,10.73
2023-12-13T05:21:31.454Z,14.00
2023-12-13T05:24:00.527Z,11.85
2023-12-13T05:26:27.618Z,12.93
2023-12-13T05:28:54.341Z,12.35
2023-12-13T05:31:22.395Z,13.10
2023-12-13T05:36:18.636Z,9.48
2023-12-13T05:38:45.398Z,12.80
2023-12-13T05:41:11.980Z,13.35
2023-12-13T05:43:41.264Z,14.93
2023-12-13T05:46:09.173Z,12.93
2023-12-13T05:48:35.901Z,11.20
2023-12-13T05:51:04.859Z,16.13
2023-12-13T05:53:33.037Z,13.13
2023-12-13T05:56:02.606Z,15.63
2023-12-13T05:58:31.212Z,12.10
2023-12-13T06:01:00.196Z,12.50
2023-12-13T06:03:26.937Z,11.93
2023-12-13T06:05:56.025Z,13.25
2023-12-13T06:08:26.415Z,11.00
2023-12-13T06:10:53.090Z,14.38
2023-12-13T06:13:22.073Z,11.77
2023-12-13T06:15:49.292Z,11.45
2023-12-13T06:18:16.141Z,12.93
2023-12-13T06:20:42.858Z,14.82
2023-12-13T06:23:11.647Z,14.05
2023-12-13T06:25:38.230Z,13.82
2023-12-13T06:28:05.820Z,12.55
2023-12-13T06:30:33.172Z,14.88
2023-12-13T06:33:02.370Z,12.82
2023-12-13T06:35:31.104Z,15.38
2023-12-13T06:38:00.338Z,12.05
2023-12-13T06:40:27.014Z,14.25
2023-12-13T06:42:53.722Z,14.85
2023-12-13T06:45:21.953Z,12.05
2023-12-13T06:47:49.867Z,13.30
2023-12-13T06:50:16.755Z,12.68
2023-12-13T06:52:43.317Z,13.68
2023-12-13T06:55:12.369Z,15.82
2023-12-13T06:57:44.185Z,15.95
2023-12-13T07:00:14.005Z,13.15
2023-12-13T07:02:40.964Z,16.15
2023-12-13T07:05:10.622Z,11.18
2023-12-13T07:07:40.121Z,13.65
2023-12-13T07:10:07.152Z,18.95
2023-12-13T07:12:33.805Z,16.15
2023-12-13T07:15:04.403Z,17.23
2023-12-13T07:17:31.525Z,15.00
2023-12-13T07:19:58.355Z,17.30
2023-12-13T07:22:25.056Z,14.82
2023-12-13T07:24:54.190Z,16.27
2023-12-13T07:27:20.937Z,14.73
2023-12-13T07:29:49.866Z,17.08
2023-12-13T07:32:23.959Z,13.02
2023-12-13T07:34:52.895Z,15.70
2023-12-13T07:37:19.544Z,18.15
2023-12-13T07:39:46.619Z,17.98
2023-12-13T07:42:15.481Z,16.98
2023-12-13T07:44:46.658Z,19.00
2023-12-13T07:47:16.530Z,14.48
2023-12-13T07:49:43.574Z,20.90
2023-12-13T07:52:13.640Z,16.38
2023-12-13T07:54:43.609Z,14.10
2023-12-13T07:57:12.677Z,16.73
2023-12-13T07:59:39.298Z,16.88
2023-12-13T08:02:06.481Z,15.05
2023-12-13T08:04:33.452Z,16.80
2023-12-13T08:07:04.609Z,15.07
2023-12-13T08:09:34.343Z,17.15
2023-12-13T08:12:00.916Z,17.42
2023-12-13T08:14:32.304Z,19.40
2023-12-13T08:17:00.419Z,20.73
2023-12-13T08:19:27.999Z,15.85
2023-12-13T08:21:54.678Z,13.68
2023-12-13T08:24:21.846Z,13.43
2023-12-13T08:26:48.415Z,13.00
2023-12-13T08:29:15.027Z,18.20
2023-12-13T08:31:41.663Z,16.70
2023-12-13T08:34:08.621Z,13.40
2023-12-13T08:36:35.243Z,17.95
2023-12-13T08:39:01.727Z,16.17
2023-12-13T08:41:30.780Z,14.50
2023-12-13T08:43:59.882Z,13.93
2023-12-13T08:46:26.544Z,17.00
2023-12-13T08:48:53.412Z,12.10
2023-12-13T08:51:20.096Z,13.10
2023-12-13T08:53:50.019Z,12.27
2023-12-13T08:56:16.892Z,13.98
2023-12-13T08:58:46.243Z,13.45
2023-12-13T09:01:16.275Z,14.77
2023-12-13T09:03:46.342Z,19.02
2023-12-13T09:06:16.672Z,16.17
2023-12-13T09:08:43.388Z,18.83
2023-12-13T09:11:10.054Z,15.50
2023-12-13T09:13:39.240Z,20.70
2023-12-13T09:16:09.145Z,13.20
2023-12-13T09:18:38.125Z,15.75
2023-12-13T09:21:04.863Z,14.38
2023-12-13T09:23:37.374Z,16.80
2023-12-13T09:26:06.429Z,16.23
2023-12-13T09:28:37.226Z,15.07
2023-12-13T09:31:07.028Z,16.25
2023-12-13T09:33:33.639Z,13.73
2023-12-13T09:36:00.641Z,12.75
2023-12-13T09:38:27.181Z,15.95
2023-12-13T09:40:53.728Z,14.68
2023-12-13T09:43:23.902Z,14.13
2023-12-13T09:45:57.345Z,13.32
2023-12-13T09:48:25.938Z,10.50
2023-12-13T09:50:54.911Z,13.82
2023-12-13T09:53:26.598Z,13.70
2023-12-13T09:55:56.230Z,11.30
2023-12-13T09:58:22.856Z,13.93
2023-12-13T10:00:49.462Z,14.43
2023-12-13T10:03:19.137Z,11.23
2023-12-13T10:05:49.751Z,17.33
2023-12-13T10:08:16.472Z,12.02
2023-12-13T10:10:48.393Z,13.57
2023-12-13T10:13:15.717Z,12.18
2023-12-13T10:15:44.846Z,13.93
2023-12-13T10:18:11.628Z,12.30
2023-12-13T10:20:38.528Z,9.32
2023-12-13T10:23:10.772Z,14.52
2023-12-13T10:25:41.239Z,12.07
2023-12-13T10:28:08.285Z,11.50
2023-12-13T10:30:36.080Z,18.98
2023-12-13T10:33:02.750Z,12.77
2023-12-13T10:35:29.306Z,13.40
2023-12-13T10:37:59.110Z,12.52
2023-12-13T10:40:25.638Z,11.02
2023-12-13T10:42:57.652Z,10.00
2023-12-13T10:45:25.387Z,9.93
2023-12-13T10:48:00.080Z,10.52
2023-12-13T10:50:28.009Z,11.63
2023-12-13T10:55:26.812Z,9.43
2023-12-13T10:57:53.885Z,11.77
2023-12-13T11:00:22.434Z,11.45
2023-12-13T11:02:57.834Z,14.02
2023-12-13T11:05:26.578Z,11.60
2023-12-13T11:07:55.756Z,12.93
2023-12-13T11:10:23.882Z,13.30
2023-12-13T11:12:52.463Z,14.27
2023-12-13T11:15:23.073Z,14.05
2023-12-13T11:17:56.948Z,14.65
2023-12-13T11:22:50.962Z,14.65
2023-12-13T11:25:20.241Z,16.85
2023-12-13T11:27:54.965Z,14.45
2023-12-13T11:30:22.397Z,16.17
2023-12-13T11:32:49.802Z,17.23
2023-12-13T11:35:21.761Z,16.27
2023-12-13T11:37:53.867Z,14.38
2023-12-13T11:40:24.069Z,15.35
2023-12-13T11:42:55.422Z,15.48
2023-12-13T11:45:22.334Z,15.15
2023-12-13T11:47:52.003Z,16.83
2023-12-13T11:50:21.438Z,12.95
2023-12-13T11:52:50.596Z,14.80
2023-12-13T11:55:20.394Z,14.95
2023-12-13T11:57:57.428Z,15.77
2023-12-13T12:00:29.109Z,15.88
2023-12-13T12:02:56.169Z,14.90
2023-12-13T12:05:24.825Z,13.70
2023-12-13T12:08:02.985Z,13.98
2023-12-13T12:10:36.102Z,16.83
2023-12-13T12:13:06.315Z,13.70
2023-12-13T12:15:32.937Z,15.82
2023-12-13T12:18:02.126Z,16.08
2023-12-13T12:20:29.044Z,14.32
2023-12-13T12:22:59.321Z,14.45
2023-12-13T12:25:29.372Z,16.73
2023-12-13T12:27:55.976Z,15.45
2023-12-13T12:30:26.976Z,15.50
2023-12-13T12:32:54.181Z,15.63
2023-12-13T12:35:23.041Z,14.23
2023-12-13T12:37:51.944Z,19.20
2023-12-13T12:40:21.168Z,18.27
2023-12-13T12:42:50.723Z,15.30
2023-12-13T12:45:17.518Z,18.38
2023-12-13T12:47:44.659Z,18.13
2023-12-13T12:50:11.604Z,19.40
2023-12-13T12:52:39.801Z,17.15
2023-12-13T12:55:09.634Z,21.05
2023-12-13T12:57:36.738Z,18.25
2023-12-13T13:00:06.521Z,17.77
2023-12-13T13:02:33.376Z,15.85
2023-12-13T13:05:00.253Z,22.15
2023-12-13T13:07:29.334Z,20.77
2023-12-13T13:09:55.942Z,15.77
2023-12-13T13:12:23.394Z,18.17
2023-12-13T13:14:52.474Z,14.63
2023-12-13T13:17:19.090Z,16.40
2023-12-13T13:19:46.932Z,13.90
2023-12-13T13:24:51.918Z,16.40
2023-12-13T13:27:25.618Z,15.30
2023-12-13T13:29:55.515Z,15.90
2023-12-13T13:32:22.081Z,17.00
2023-12-13T13:34:48.732Z,25.20
2023-12-13T13:37:15.374Z,22.40
2023-12-13T13:39:41.966Z,16.92
2023-12-13T13:42:11.626Z,20.35
2023-12-13T13:44:41.953Z,15.48
2023-12-13T13:47:09.949Z,17.65
2023-12-13T13:49:37.298Z,16.35
2023-12-13T13:52:04.174Z,15.52
2023-12-13T13:54:30.857Z,16.20
2023-12-13T13:56:57.629Z,15.75
2023-12-13T13:59:24.269Z,14.05
2023-12-13T14:01:53.106Z,26.63
2023-12-13T14:04:22.773Z,21.05
2023-12-13T14:06:49.408Z,22.77
2023-12-13T14:09:19.213Z,22.80
2023-12-13T14:11:45.935Z,30.38
2023-12-13T14:14:12.827Z,26.58
2023-12-13T14:16:39.458Z,34.30
2023-12-13T14:19:08.963Z,17.70
2023-12-13T14:21:35.587Z,18.10
2023-12-13T14:24:05.217Z,16.48
2023-12-13T14:26:33.296Z,17.23
2023-12-13T14:28:59.966Z,15.30
2023-12-13T14:31:26.987Z,15.18
2023-12-13T14:33:54.064Z,16.60
2023-12-13T14:36:20.713Z,17.33
2023-12-13T14:38:49.728Z,15.65
2023-12-13T14:41:19.545Z,15.13
2023-12-13T14:43:46.524Z,15.50
2023-12-13T14:46:14.794Z,13.57
2023-12-13T14:48:41.608Z,14.45
2023-12-13T14:51:08.326Z,12.90
2023-12-13T14:53:35.498Z,12.93
2023-12-13T14:56:04.639Z,13.68
2023-12-13T14:58:34.493Z,19.10
2023-12-13T15:01:05.589Z,13.00
2023-12-13T15:03:36.546Z,11.65
2023-12-13T15:06:03.455Z,13.80
2023-12-13T15:08:30.079Z,11.77
2023-12-13T15:10:58.922Z,13.48
2023-12-13T15:13:29.145Z,12.85
2023-12-13T15:15:58.914Z,16.88
2023-12-13T15:18:26.283Z,13.80
2023-12-13T15:20:56.005Z,14.15
2023-12-13T15:23:24.201Z,20.42
2023-12-13T15:25:53.974Z,16.63
2023-12-13T15:28:31.855Z,18.05
2023-12-13T15:30:58.529Z,19.05
2023-12-13T15:33:28.131Z,18.00
2023-12-13T15:35:56.967Z,18.13
2023-12-13T15:38:23.553Z,24.23
2023-12-13T15:40:50.327Z,16.70
2023-12-13T15:43:17.062Z,15.30
2023-12-13T15:45:43.741Z,16.83
2023-12-13T15:48:11.376Z,13.25
2023-12-13T15:50:37.952Z,12.15
2023-12-13T15:53:04.542Z,12.85
2023-12-13T15:55:33.882Z,13.30
2023-12-13T15:58:03.934Z,16.38
2023-12-13T16:00:30.460Z,13.40
2023-12-13T16:02:57.862Z,15.00
2023-12-13T16:05:29.283Z,15.27
2023-12-13T16:08:01.087Z,15.23
2023-12-13T16:10:28.144Z,15.25
2023-12-13T16:12:59.527Z,15.38
2023-12-13T16:15:28.916Z,16.17
2023-12-13T16:17:58.432Z,16.25
2023-12-13T16:20:28.468Z,14.27
2023-12-13T16:22:57.318Z,17.08
2023-12-13T16:25:28.688Z,17.08
2023-12-13T16:27:57.944Z,18.45
2023-12-13T16:30:26.754Z,19.83
2023-12-13T16:32:58.701Z,17.63
2023-12-13T16:35:25.708Z,16.42
2023-12-13T16:37:54.658Z,16.70
2023-12-13T16:40:23.777Z,15.60
2023-12-13T16:42:50.443Z,15.93
2023-12-13T16:45:17.039Z,18.63
2023-12-13T16:47:43.680Z,13.25
2023-12-13T16:50:10.912Z,19.50
2023-12-13T16:52:40.255Z,15.55
2023-12-13T16:55:08.342Z,23.65
2023-12-13T16:57:37.478Z,22.20
2023-12-13T17:00:07.549Z,17.23
2023-12-13T17:02:43.783Z,17.40
2023-12-13T17:05:12.658Z,14.32
2023-12-13T17:07:39.486Z,16.65
2023-12-13T17:10:09.230Z,17.80
2023-12-13T17:12:36.279Z,21.10
2023-12-13T17:15:05.663Z,18.05
2023-12-13T17:17:34.509Z,15.45
2023-12-13T17:20:01.237Z,20.30
2023-12-13T17:22:32.787Z,18.05
2023-12-13T17:25:00.043Z,19.63
2023-12-13T17:27:32.261Z,21.38
2023-12-13T17:29:59.027Z,19.08
2023-12-13T17:32:32.540Z,21.98
2023-12-13T17:34:59.936Z,23.48
2023-12-13T17:37:26.656Z,26.15
2023-12-13T17:39:54.701Z,27.88
2023-12-13T17:44:52.543Z,25.05
2023-12-13T17:47:21.517Z,26.95
2023-12-13T17:49:49.004Z,23.52
2023-12-13T17:52:18.256Z,24.05
2023-12-13T17:54:46.641Z,23.55
2023-12-13T17:57:15.289Z,25.50
2023-12-13T17:59:43.011Z,25.90
2023-12-13T18:02:10.801Z,24.08
2023-12-13T18:04:38.707Z,28.58
2023-12-13T18:07:05.790Z,25.33
2023-12-13T18:09:32.496Z,30.92
2023-12-13T18:12:01.646Z,28.08
2023-12-13T18:14:30.491Z,30.83
2023-12-13T18:16:57.078Z,30.35
2023-12-13T18:19:27.205Z,24.65
2023-12-13T18:21:54.114Z,30.75
2023-12-13T18:24:20.730Z,29.75
2023-12-13T18:26:47.375Z,33.40
2023-12-13T18:29:14.404Z,29.95
2023-12-13T18:31:44.032Z,32.08
2023-12-13T18:34:18.227Z,29.08
2023-12-13T18:36:45.213Z,32.55
2023-12-13T18:39:11.873Z,31.60
2023-12-13T18:41:41.595Z,29.65
2023-12-13T18:44:08.670Z,30.05
2023-12-13T18:46:37.766Z,31.23
2023-12-13T18:49:04.347Z,29.90
2023-12-13T18:51:30.862Z,30.40
2023-12-13T18:53:57.953Z,32.10
2023-12-13T18:56:24.512Z,32.70
2023-12-13T18:58:55.881Z,25.75
2023-12-13T19:01:23.264Z,23.42
2023-12-13T19:03:52.156Z,25.98
2023-12-13T19:06:19.994Z,29.80
2023-12-13T19:08:49.387Z,27.83
2023-12-13T19:11:20.719Z,31.30
2023-12-13T19:13:49.801Z,29.65
2023-12-13T19:16:16.506Z,32.03
2023-12-13T19:18:43.234Z,30.33
2023-12-13T19:21:09.913Z,26.85
2023-12-13T19:23:38.874Z,30.23
2023-12-13T19:26:06.190Z,29.88
2023-12-13T19:28:32.900Z,30.65
2023-12-13T19:30:59.505Z,27.23
2023-12-13T19:33:28.827Z,27.52
2023-12-13T19:35:55.613Z,32.50
2023-12-13T19:38:24.627Z,34.55
2023-12-13T19:40:53.673Z,29.58
2023-12-13T19:43:20.316Z,34.55
2023-12-13T19:45:47.280Z,31.17
2023-12-13T19:48:16.330Z,26.20
2023-12-13T19:50:45.194Z,23.55
2023-12-13T19:53:11.788Z,20.90
2023-12-13T19:55:38.741Z,18.85
2023-12-13T19:58:05.317Z,17.77
2023-12-13T20:00:34.401Z,17.02
2023-12-13T20:03:03.778Z,15.85
2023-12-13T20:05:33.821Z,16.50
2023-12-13T20:08:00.595Z,17.33
2023-12-13T20:10:29.684Z,14.13
2023-12-13T20:12:56.757Z,12.40
2023-12-13T20:15:23.872Z,15.73
2023-12-13T20:17:50.495Z,12.05
2023-12-13T20:20:17.242Z,11.52
2023-12-13T20:22:43.846Z,10.85
2023-12-13T20:25:10.502Z,12.48
2023-12-13T20:27:40.615Z,10.00
2023-12-13T20:30:10.898Z,8.65
2023-12-13T20:32:39.412Z,9.60
2023-12-13T20:35:09.196Z,7.30
2023-12-13T20:37:37.246Z,7.70
2023-12-13T20:40:06.820Z,7.55
2023-12-13T20:42:33.902Z,6.47
2023-12-13T20:45:05.291Z,6.88
2023-12-13T20:47:39.596Z,7.00
2023-12-13T20:50:07.155Z,7.43
2023-12-13T20:52:33.792Z,5.50
2023-12-13T20:55:00.542Z,6.43
2023-12-13T20:57:27.849Z,7.55
2023-12-13T20:59:57.488Z,6.43
2023-12-13T21:02:27.589Z,7.72
2023-12-13T21:05:42.088Z,9.70
2023-12-13T21:08:08.754Z,9.73
2023-12-13T21:10:38.743Z,8.20
2023-12-13T21:13:05.636Z,8.88
2023-12-13T21:15:32.271Z,8.65
2023-12-13T21:17:59.100Z,9.10
2023-12-13T21:20:25.766Z,8.52
2023-12-13T21:22:52.396Z,11.55
2023-12-13T21:25:19.019Z,14.93
2023-12-13T21:27:45.593Z,17.35
2023-12-13T21:30:14.693Z,17.40
2023-12-13T21:32:44.550Z,20.50
2023-12-13T21:35:14.247Z,19.80
2023-12-13T21:37:41.311Z,21.25
2023-12-13T21:40:08.569Z,18.70
2023-12-13T21:42:36.472Z,21.00
2023-12-13T21:45:06.267Z,19.75
2023-12-13T21:47:33.057Z,16.50
2023-12-13T21:50:03.474Z,16.17
2023-12-13T21:52:36.445Z,14.27
2023-12-13T21:55:04.854Z,20.48
2023-12-13T21:57:31.382Z,14.45
2023-12-13T21:59:58.357Z,14.90
2023-12-13T22:02:24.917Z,17.70
2023-12-13T22:04:53.792Z,15.95
2023-12-13T22:07:20.368Z,14.77
2023-12-13T22:09:48.018Z,12.68
2023-12-13T22:12:14.756Z,15.38
2023-12-13T22:14:42.852Z,13.38
2023-12-13T22:19:50.495Z,15.57
2023-12-13T22:22:18.556Z,12.77
2023-12-13T22:27:23.221Z,11.57
2023-12-13T22:29:49.739Z,9.93
2023-12-13T22:32:18.586Z,12.63
2023-12-13T22:34:46.052Z,11.60
2023-12-13T22:37:12.585Z,11.20
2023-12-13T22:39:44.597Z,11.23
2023-12-13T22:42:11.236Z,12.77
2023-12-13T22:44:41.573Z,13.07
2023-12-13T22:47:08.153Z,11.30
2023-12-13T22:49:36.717Z,11.25
2023-12-13T22:52:19.858Z,21.88
2023-12-13T22:54:50.670Z,24.42
2023-12-13T22:57:17.352Z,15.40
2023-12-13T22:59:46.633Z,10.50
2023-12-13T23:02:13.300Z,14.32
2023-12-13T23:04:44.016Z,11.93
2023-12-13T23:07:15.339Z,11.25
2023-12-13T23:09:42.213Z,10.52
2023-12-13T23:12:16.103Z,12.77
2023-12-13T23:14:42.635Z,12.65
2023-12-13T23:17:09.408Z,11.57
2023-12-13T23:19:39.227Z,10.15
2023-12-13T23:22:05.951Z,10.75
2023-12-13T23:24:32.684Z,11.48
2023-12-13T23:27:04.644Z,11.25
2023-12-13T23:29:33.498Z,14.27
2023-12-13T23:32:00.191Z,10.88
2023-12-13T23:34:26.993Z,14.10
2023-12-13T23:36:53.739Z,10.68
2023-12-13T23:39:20.601Z,10.45
2023-12-13T23:41:52.592Z,12.32
2023-12-13T23:44:24.298Z,13.95
2023-12-13T23:46:50.969Z,11.57
2023-12-13T23:49:19.935Z,12.60
2023-12-13T23:51:46.619Z,14.38
2023-12-13T23:54:18.152Z,12.98
2023-12-13T23:56:44.818Z,12.77
2023-12-13T23:59:13.650Z,12.13
